Terminal Aerodrome Forecast
Issued by NWS

Home | Current Version | Previous Version | Graphics & Text | Print | Product List | Glossary On
Versions: 1 2 3 4 5 6 7 8 9 10 11 12 13 14
061
FTUS43 KICT 191139
TAFRSL
TAF
KRSL 191139Z 1912/2012 17010KT 4SM BR SCT250
      TEMPO 1912/1914 1SM BR SCT006
     FM191400 17012KT 3SM BR BKN006
      TEMPO 1914/1916 1SM BR
     FM191700 18014G20KT P6SM BKN016
     FM191900 18016G24KT P6SM BKN060
     FM200000 16017KT P6SM VCSH BKN120=

USA.gov is the U.S. government's official web portal to all federal, state and local government web resources and services.